createdAt,value
2023-01-17T00:04:54.280Z,101191.56
2023-01-17T00:10:05.971Z,101208.63
2023-01-17T00:15:10.378Z,101212.88
2023-01-17T00:20:52.077Z,101192.53
2023-01-17T00:26:06.730Z,101212.09
2023-01-17T00:31:12.197Z,101195.94
2023-01-17T00:36:16.058Z,101217.22
2023-01-17T00:41:20.459Z,101218.94
2023-01-17T00:46:46.743Z,101223.22
2023-01-17T00:52:09.118Z,101215.59
2023-01-17T00:57:31.165Z,101170.53
2023-01-17T01:02:57.005Z,101213.16
2023-01-17T01:08:25.513Z,101217.44
2023-01-17T01:13:51.148Z,101227.66
2023-01-17T01:19:13.463Z,101241.28
2023-01-17T01:24:36.044Z,101234.50
2023-01-17T01:29:59.684Z,101254.06
2023-01-17T01:35:06.872Z,101255.81
2023-01-17T01:40:12.622Z,101262.63
2023-01-17T01:45:27.946Z,101268.59
2023-01-17T01:50:37.535Z,101284.75
2023-01-17T01:55:51.222Z,101279.66
2023-01-17T02:00:54.986Z,101278.00
2023-01-17T02:06:27.998Z,101276.28
2023-01-17T02:11:33.173Z,101302.63
2023-01-17T02:17:01.970Z,101291.59
2023-01-17T02:22:33.610Z,101296.72
2023-01-17T02:27:59.760Z,101302.69
2023-01-17T02:33:19.727Z,101295.03
2023-01-17T02:38:32.317Z,101313.75
2023-01-17T02:43:40.372Z,101314.59
2023-01-17T02:48:46.999Z,101318.00
2023-01-17T02:53:59.343Z,101327.38
2023-01-17T02:59:16.586Z,101335.88
2023-01-17T03:05:01.733Z,101340.13
2023-01-17T03:10:14.585Z,101342.69
2023-01-17T03:15:22.034Z,101346.09
2023-01-17T03:20:28.438Z,101356.31
2023-01-17T03:25:35.254Z,101359.72
2023-01-17T03:30:41.987Z,101360.63
2023-01-17T03:35:51.941Z,101362.31
2023-01-17T03:40:56.848Z,101369.13
2023-01-17T03:46:09.324Z,101372.53
2023-01-17T03:51:17.088Z,101364.03
2023-01-17T03:56:22.063Z,101383.59
2023-01-17T04:01:28.970Z,101392.13
2023-01-17T04:06:32.772Z,101398.94
2023-01-17T04:11:40.075Z,101404.91
2023-01-17T04:16:46.056Z,101405.78
2023-01-17T04:21:49.862Z,101407.47
2023-01-17T04:26:55.023Z,101401.50
2023-01-17T04:31:59.626Z,101410.88
2023-01-17T04:37:03.973Z,101411.72
2023-01-17T04:42:08.526Z,101408.28
2023-01-17T04:47:13.107Z,101412.53
2023-01-17T04:52:23.684Z,101430.44
2023-01-17T04:57:28.605Z,101427.88
2023-01-17T05:02:33.284Z,101424.44
2023-01-17T05:07:40.529Z,101414.22
2023-01-17T05:12:45.443Z,101439.75
2023-01-17T05:17:50.116Z,101433.78
2023-01-17T05:22:58.402Z,101416.75
2023-01-17T05:28:04.830Z,101432.03
2023-01-17T05:33:10.927Z,101426.09
2023-01-17T05:38:14.685Z,101429.50
2023-01-17T05:43:19.871Z,101428.59
2023-01-17T05:48:25.241Z,101416.63
2023-01-17T05:53:30.788Z,101432.81
2023-01-17T05:58:35.495Z,101426.00
2023-01-17T06:03:50.090Z,101438.78
2023-01-17T06:08:54.789Z,101434.50
2023-01-17T06:13:58.898Z,101444.72
2023-01-17T06:19:02.735Z,101436.13
2023-01-17T06:24:08.280Z,101427.56
2023-01-17T06:29:13.282Z,101436.06
2023-01-17T06:34:19.087Z,101424.16
2023-01-17T06:39:22.841Z,101440.31
2023-01-17T06:44:27.030Z,101441.16
2023-01-17T06:49:33.677Z,101449.72
2023-01-17T06:54:37.517Z,101446.28
2023-01-17T06:59:42.881Z,101430.06
2023-01-17T07:04:48.419Z,101442.00
2023-01-17T07:09:53.017Z,101456.47
2023-01-17T07:14:56.976Z,101446.25
2023-01-17T07:20:02.283Z,101454.78
2023-01-17T07:25:08.048Z,101465.03
2023-01-17T07:30:14.906Z,101462.47
2023-01-17T07:35:19.683Z,101480.38
2023-01-17T07:40:24.969Z,101468.44
2023-01-17T07:45:29.048Z,101475.28
2023-01-17T07:50:33.048Z,101478.69
2023-01-17T07:55:37.170Z,101472.75
2023-01-17T08:00:41.169Z,101488.97
2023-01-17T08:05:58.612Z,101496.66
2023-01-17T08:11:03.020Z,101495.78
2023-01-17T08:16:09.977Z,101500.03
2023-01-17T08:21:17.657Z,101460.06
2023-01-17T08:26:23.735Z,101516.25
2023-01-17T08:31:34.665Z,101523.91
2023-01-17T08:36:43.494Z,101519.66
2023-01-17T08:41:48.216Z,101521.38
2023-01-17T08:46:52.785Z,101530.75
2023-01-17T08:52:00.305Z,101537.59
2023-01-17T08:57:07.405Z,101552.09
2023-01-17T09:02:20.989Z,101527.38
2023-01-17T09:07:25.406Z,101537.56
2023-01-17T09:12:39.075Z,101546.97
2023-01-17T09:17:43.593Z,101539.28
2023-01-17T09:22:48.990Z,101543.56
2023-01-17T09:27:56.627Z,101552.97
2023-01-17T09:33:02.798Z,101549.53
2023-01-17T09:38:08.887Z,101549.53
2023-01-17T09:43:39.022Z,101538.47
2023-01-17T09:48:47.494Z,101558.94
2023-01-17T09:53:54.530Z,101553.81
2023-01-17T09:59:10.138Z,101547.00
2023-01-17T10:04:32.003Z,101547.84
2023-01-17T10:09:50.263Z,101558.09
2023-01-17T10:15:18.835Z,101551.31
2023-01-17T10:20:48.127Z,101553.03
2023-01-17T10:25:55.205Z,101549.63
2023-01-17T10:31:19.442Z,101568.38
2023-01-17T10:36:43.364Z,101564.13
2023-01-17T10:42:00.563Z,101570.94
2023-01-17T10:47:10.503Z,101569.25
2023-01-17T10:52:24.527Z,101573.50
2023-01-17T10:57:33.550Z,101572.66
2023-01-17T11:02:52.264Z,101583.75
2023-01-17T11:07:59.055Z,101571.81
2023-01-17T11:13:05.577Z,101594.00
2023-01-17T11:18:19.814Z,101565.00
2023-01-17T11:23:36.992Z,101594.84
2023-01-17T11:28:43.239Z,101605.06
2023-01-17T11:33:57.139Z,101597.41
2023-01-17T11:39:10.033Z,101592.28
2023-01-17T11:44:27.151Z,101581.22
2023-01-17T11:49:31.652Z,101593.16
2023-01-17T11:54:41.174Z,101582.91
2023-01-17T11:59:48.348Z,101591.44
2023-01-17T12:05:13.105Z,101557.38
2023-01-17T12:10:42.477Z,101586.31
2023-01-17T12:16:29.221Z,101591.44
2023-01-17T12:21:36.836Z,101584.63
2023-01-17T12:27:08.321Z,101596.56
2023-01-17T12:32:17.922Z,101588.88
2023-01-17T12:37:38.589Z,101600.84
2023-01-17T12:42:55.039Z,101609.34
2023-01-17T12:48:08.361Z,101619.59
2023-01-17T12:53:24.892Z,101605.94
2023-01-17T12:58:43.730Z,101611.91
2023-01-17T13:04:12.760Z,101613.63
2023-01-17T13:09:23.694Z,101616.19
2023-01-17T13:14:28.826Z,101625.56
2023-01-17T13:19:47.911Z,101629.81
2023-01-17T13:25:12.487Z,101636.63
2023-01-17T13:30:45.535Z,101632.38
2023-01-17T13:36:21.400Z,101625.56
2023-01-17T13:41:49.027Z,101637.50
2023-01-17T13:47:29.228Z,101630.66
2023-01-17T13:52:37.399Z,101624.69
2023-01-17T13:57:43.961Z,101627.25
2023-01-17T14:02:52.651Z,101625.56
2023-01-17T14:08:14.635Z,101634.94
2023-01-17T14:13:40.019Z,101628.13
2023-01-17T14:18:46.390Z,101617.88
2023-01-17T14:23:58.646Z,101624.72
2023-01-17T14:29:41.144Z,101646.88
2023-01-17T14:34:50.097Z,101652.00
2023-01-17T14:39:57.282Z,101653.69
2023-01-17T14:45:10.648Z,101602.53
2023-01-17T14:50:24.678Z,101657.97
2023-01-17T14:55:29.983Z,101639.19
2023-01-17T15:00:42.084Z,101667.34
2023-01-17T15:05:50.823Z,101664.78
2023-01-17T15:11:11.222Z,101663.06
2023-01-17T15:16:27.789Z,101657.97
2023-01-17T15:21:44.274Z,101655.41
2023-01-17T15:26:49.728Z,101655.41
2023-01-17T15:31:58.945Z,101652.00
2023-01-17T15:37:09.761Z,101598.25
2023-01-17T15:42:27.054Z,101646.84
2023-01-17T15:47:36.045Z,101669.03
2023-01-17T15:52:49.959Z,101675.88
2023-01-17T15:57:55.050Z,101674.16
2023-01-17T16:03:02.858Z,101685.25
2023-01-17T16:08:08.075Z,101681.84
2023-01-17T16:13:14.272Z,101695.47
2023-01-17T16:18:26.937Z,101699.75
2023-01-17T16:23:34.860Z,101701.44
2023-01-17T16:28:39.903Z,101693.78
2023-01-17T16:33:44.004Z,101708.28
2023-01-17T16:38:53.201Z,101717.66
2023-01-17T16:44:05.919Z,101715.94
2023-01-17T16:49:13.933Z,101739.81
2023-01-17T16:54:19.883Z,101736.41
2023-01-17T16:59:25.071Z,101749.19
2023-01-17T17:04:30.135Z,101763.69
2023-01-17T17:09:35.239Z,101765.41
2023-01-17T17:14:40.279Z,101767.94
2023-01-17T17:19:44.262Z,101772.22
2023-01-17T17:24:51.307Z,101772.22
2023-01-17T17:29:55.409Z,101777.31
2023-01-17T17:35:00.824Z,101783.31
2023-01-17T17:40:06.039Z,101795.25
2023-01-17T17:45:11.276Z,101793.53
2023-01-17T17:50:16.483Z,101785.84
2023-01-17T17:55:21.946Z,101790.13
2023-01-17T18:00:25.723Z,101796.09
2023-01-17T18:05:31.215Z,101815.69
2023-01-17T18:10:34.989Z,101824.22
2023-01-17T18:15:39.087Z,101833.59
2023-01-17T18:20:45.744Z,101829.31
2023-01-17T18:25:49.934Z,101841.19
2023-01-17T18:30:54.584Z,101823.28
2023-01-17T18:36:00.217Z,101848.84
2023-01-17T18:41:12.889Z,101854.78
2023-01-17T18:46:18.074Z,101857.25
2023-01-17T18:51:25.068Z,101864.88
2023-01-17T18:56:32.960Z,101877.66
2023-01-17T19:01:37.721Z,101845.03
2023-01-17T19:06:45.177Z,101894.50
2023-01-17T19:11:49.139Z,101906.34
2023-01-17T19:16:52.974Z,101910.53
2023-01-17T19:22:00.948Z,101897.66
2023-01-17T19:27:07.985Z,101903.59
2023-01-17T19:32:15.076Z,101921.44
2023-01-17T19:37:19.940Z,101922.31
2023-01-17T19:42:23.696Z,101941.00
2023-01-17T19:47:28.986Z,101934.09
2023-01-17T19:52:33.675Z,101952.66
2023-01-17T19:57:41.381Z,101964.47
2023-01-17T20:02:45.183Z,101978.00
2023-01-17T20:07:50.102Z,101977.06
2023-01-17T20:12:53.851Z,101982.94
2023-01-17T20:17:59.066Z,101983.81
2023-01-17T20:23:06.306Z,101997.38
2023-01-17T20:28:11.817Z,101994.78
2023-01-17T20:33:18.621Z,102012.63
2023-01-17T20:38:28.341Z,102027.03
2023-01-17T20:43:35.538Z,102011.56
2023-01-17T20:49:02.715Z,102017.47
2023-01-17T20:54:11.994Z,102032.66
2023-01-17T20:59:18.869Z,102037.72
2023-01-17T21:04:26.406Z,102030.06
2023-01-17T21:09:34.943Z,102059.75
2023-01-17T21:14:42.298Z,102009.16
2023-01-17T21:19:46.828Z,102064.69
2023-01-17T21:24:51.494Z,102060.47
2023-01-17T21:29:56.437Z,102090.91
2023-01-17T21:35:02.572Z,102087.91
2023-01-17T21:40:09.029Z,102093.78
2023-01-17T21:45:13.963Z,102093.50
2023-01-17T21:50:32.472Z,102102.69
2023-01-17T21:55:58.125Z,102090.63
2023-01-17T22:01:21.039Z,102083.59
2023-01-17T22:06:29.140Z,102091.97
2023-01-17T22:11:37.726Z,102113.16
2023-01-17T22:16:43.751Z,102116.28
2023-01-17T22:21:47.641Z,102129.94
2023-01-17T22:26:53.817Z,102123.94
2023-01-17T22:31:59.029Z,102125.63
2023-01-17T22:37:06.904Z,102130.69
2023-01-17T22:42:15.766Z,102147.50
2023-01-17T22:47:19.706Z,102161.09
2023-01-17T22:52:32.504Z,102159.28
2023-01-17T22:57:39.692Z,102167.59
2023-01-17T23:02:43.736Z,102170.16
2023-01-17T23:07:53.546Z,102171.63
2023-01-17T23:13:43.518Z,102197.78
2023-01-17T23:19:09.296Z,102210.53
2023-01-17T23:24:18.282Z,102216.34
2023-01-17T23:29:24.077Z,102194.66
2023-01-17T23:34:27.950Z,102203.97
2023-01-17T23:39:36.591Z,102221.13
2023-01-17T23:44:41.206Z,102233.84
2023-01-17T23:49:49.124Z,102234.63
2023-01-17T23:54:52.952Z,102249.78
